Time;durP1;ratioP1;P1;durP2;ratioP2;P2;SDS_P1;SDS_P2;PMS_P1;PMS_P2;Temp;Humidity;BMP_temperature;BMP_pressure;BME280_temperature;BME280_humidity;BME280_pressure;Samples;Min_cycle;Max_cycle;Signal;HPM_P1;HPM_P2
2021/01/16 00:00:24;;;;;;;22.27;14.57;;;0.90;99.90;;;;;;5094281;28;20584;-79
2021/01/16 00:02:49;;;;;;;21.33;14.63;;;0.90;99.90;;;;;;5073419;28;20038;-79
2021/01/16 00:05:19;;;;;;;22.95;15.23;;;0.90;99.90;;;;;;5090570;28;20114;-79
2021/01/16 00:07:47;;;;;;;20.30;13.70;;;1.00;99.90;;;;;;5086199;28;20034;-80
2021/01/16 00:10:14;;;;;;;21.90;14.70;;;1.00;99.90;;;;;;5090604;28;20024;-79
2021/01/16 00:12:48;;;;;;;23.60;14.95;;;1.00;99.90;;;;;;5076303;28;20035;-79
2021/01/16 00:15:16;;;;;;;23.33;15.10;;;1.00;99.90;;;;;;5091067;28;20028;-79
2021/01/16 00:17:44;;;;;;;23.38;14.70;;;0.90;99.90;;;;;;5093890;28;20074;-79
2021/01/16 00:20:11;;;;;;;21.33;14.55;;;0.90;99.90;;;;;;5080851;28;20036;-79
2021/01/16 00:22:48;;;;;;;21.70;14.82;;;0.90;99.90;;;;;;5076723;28;20032;-79
2021/01/16 00:25:14;;;;;;;20.92;14.40;;;1.00;99.90;;;;;;5081396;28;20036;-79
2021/01/16 00:27:39;;;;;;;22.92;14.68;;;0.90;99.90;;;;;;5088973;28;20068;-79
2021/01/16 00:30:09;;;;;;;21.35;14.27;;;0.90;99.90;;;;;;5089070;28;20436;-79
2021/01/16 00:32:39;;;;;;;19.95;14.02;;;0.90;99.90;;;;;;5071651;28;20416;-79
2021/01/16 00:35:11;;;;;;;23.05;14.57;;;0.90;99.90;;;;;;5078295;28;20616;-79
2021/01/16 00:37:40;;;;;;;22.55;13.75;;;0.90;99.90;;;;;;5075140;28;20036;-79
2021/01/16 00:40:10;;;;;;;22.38;14.55;;;0.90;99.90;;;;;;5075317;28;20123;-79
2021/01/16 00:42:42;;;;;;;21.65;14.18;;;0.90;99.90;;;;;;5077011;28;20028;-79
2021/01/16 00:45:13;;;;;;;;;;;0.90;99.90;;;;;;5076288;28;20449;-79
2021/01/16 00:47:43;;;;;;;22.27;14.15;;;0.90;99.90;;;;;;5074771;28;19984;-80
2021/01/16 00:50:11;;;;;;;22.80;14.18;;;0.90;99.90;;;;;;5076642;28;20024;-79
2021/01/16 00:52:40;;;;;;;22.33;14.35;;;0.90;99.90;;;;;;5085223;28;20039;-79
2021/01/16 00:55:11;;;;;;;20.75;13.05;;;0.90;99.90;;;;;;5090264;28;20020;-79
2021/01/16 00:57:37;;;;;;;22.85;13.68;;;0.90;99.90;;;;;;5074563;28;20036;-79
2021/01/16 01:00:11;;;;;;;21.00;14.13;;;0.90;99.90;;;;;;5089985;28;20136;-79
2021/01/16 01:02:41;;;;;;;20.35;14.32;;;0.90;99.90;;;;;;5087248;28;20042;-79
2021/01/16 01:05:07;;;;;;;19.13;13.65;;;0.90;99.90;;;;;;5060859;28;20070;-79
2021/01/16 01:07:33;;;;;;;19.80;13.20;;;0.90;99.90;;;;;;5075920;28;20043;-79
2021/01/16 01:09:59;;;;;;;20.02;12.98;;;0.90;99.90;;;;;;5076316;28;20021;-79
2021/01/16 01:12:24;;;;;;;22.52;14.32;;;0.90;99.90;;;;;;5075841;28;20043;-79
2021/01/16 01:14:52;;;;;;;21.65;13.65;;;0.80;99.90;;;;;;5074205;28;20548;-80
2021/01/16 01:17:18;;;;;;;21.90;14.13;;;0.80;99.90;;;;;;5075293;28;20032;-79
2021/01/16 01:19:46;;;;;;;20.00;13.80;;;0.80;99.90;;;;;;5068239;28;20105;-80
2021/01/16 01:22:12;;;;;;;22.17;13.68;;;0.80;99.90;;;;;;5075557;28;20638;-78
2021/01/16 01:24:38;;;;;;;20.95;13.63;;;0.80;99.90;;;;;;5074173;28;20040;-79
2021/01/16 01:27:06;;;;;;;20.25;13.70;;;0.80;99.90;;;;;;5074640;28;20551;-80
2021/01/16 01:29:35;;;;;;;20.70;13.52;;;0.70;99.90;;;;;;5078820;28;20039;-80
2021/01/16 01:32:03;;;;;;;20.90;13.35;;;0.70;99.90;;;;;;5060022;28;20107;-80
2021/01/16 01:34:29;;;;;;;20.83;13.30;;;0.80;99.90;;;;;;5074717;28;20039;-79
2021/01/16 01:37:01;;;;;;;21.73;14.32;;;0.70;99.90;;;;;;5060361;28;20028;-80
2021/01/16 01:39:30;;;;;;;21.70;14.00;;;0.70;99.90;;;;;;5074643;28;20361;-79
2021/01/16 01:41:58;;;;;;;21.10;13.75;;;0.70;99.90;;;;;;5092269;28;20028;-79
2021/01/16 01:44:24;;;;;;;18.98;12.63;;;0.60;99.90;;;;;;5087363;28;20024;-80
2021/01/16 01:46:51;;;;;;;20.27;13.30;;;0.60;99.90;;;;;;5074742;28;20043;-80
2021/01/16 01:49:19;;;;;;;20.38;13.00;;;0.60;99.90;;;;;;5081429;28;20040;-80
2021/01/16 01:51:47;;;;;;;19.02;12.50;;;0.60;99.90;;;;;;5073891;28;20028;-82
2021/01/16 01:54:15;;;;;;;19.40;12.88;;;0.60;99.90;;;;;;5063882;28;20032;-80
2021/01/16 01:56:41;;;;;;;20.05;12.50;;;0.50;99.90;;;;;;5072531;28;20032;-79
2021/01/16 01:59:09;;;;;;;19.17;12.35;;;0.50;99.90;;;;;;5073990;28;20037;-79
2021/01/16 02:01:38;;;;;;;19.90;12.75;;;0.50;99.90;;;;;;5056465;28;20617;-79
2021/01/16 02:04:05;;;;;;;19.38;12.38;;;0.50;99.90;;;;;;5054998;28;20085;-80
2021/01/16 02:06:33;;;;;;;18.17;12.00;;;0.50;99.90;;;;;;5068754;28;20040;-79
2021/01/16 02:09:03;;;;;;;19.00;11.50;;;0.50;99.90;;;;;;5065214;28;20024;-79
2021/01/16 02:11:31;;;;;;;18.25;11.57;;;0.50;99.90;;;;;;5075497;28;20032;-80
2021/01/16 02:13:57;;;;;;;18.90;11.88;;;0.60;99.90;;;;;;5072547;28;20042;-79
2021/01/16 02:16:26;;;;;;;18.92;11.63;;;0.50;99.90;;;;;;5048887;28;20455;-79
2021/01/16 02:18:55;;;;;;;17.83;11.57;;;0.50;99.90;;;;;;5073685;28;20028;-80
2021/01/16 02:21:21;;;;;;;18.02;11.45;;;0.50;99.90;;;;;;5074253;28;20385;-80
2021/01/16 02:24:15;;;;;;;16.90;11.48;;;0.50;99.90;;;;;;5068934;28;20033;-79
2021/01/16 02:27:03;;;;;;;16.90;10.85;;;0.50;99.90;;;;;;5085058;28;20044;-80
2021/01/16 02:29:33;;;;;;;16.55;10.02;;;0.50;99.90;;;;;;5072965;28;20188;-79
2021/01/16 02:32:08;;;;;;;16.77;10.63;;;0.50;99.90;;;;;;5076906;28;20124;-79
2021/01/16 02:34:40;;;;;;;19.25;11.18;;;0.40;99.90;;;;;;5057858;28;20075;-79
2021/01/16 02:37:23;;;;;;;18.30;11.52;;;0.40;99.90;;;;;;5065797;28;20440;-79
2021/01/16 02:39:55;;;;;;;16.85;10.30;;;0.40;99.90;;;;;;5074686;28;20028;-79
2021/01/16 02:42:45;;;;;;;12.65;7.93;;;0.40;99.90;;;;;;5082274;28;20073;-79
2021/01/16 02:45:20;;;;;;;17.65;11.18;;;0.40;99.90;;;;;;5074812;28;20035;-79
2021/01/16 02:47:56;;;;;;;15.13;10.10;;;0.40;99.90;;;;;;5062624;28;20020;-79
2021/01/16 02:50:22;;;;;;;17.02;11.07;;;0.40;99.90;;;;;;5089590;28;20050;-79
2021/01/16 02:52:48;;;;;;;14.80;9.75;;;0.40;99.90;;;;;;5075773;28;20051;-79
2021/01/16 02:55:17;;;;;;;15.90;10.57;;;0.30;99.90;;;;;;5074679;28;20051;-79
2021/01/16 02:57:45;;;;;;;16.75;10.50;;;0.30;99.90;;;;;;5072360;28;20385;-79
2021/01/16 03:00:18;;;;;;;18.42;10.40;;;0.20;99.90;;;;;;5082672;28;20468;-79
2021/01/16 03:02:51;;;;;;;17.83;10.05;;;0.20;99.90;;;;;;5076038;28;20044;-79
2021/01/16 03:05:17;;;;;;;16.50;10.57;;;0.20;99.90;;;;;;5078793;28;20069;-79
2021/01/16 03:07:43;;;;;;;16.98;9.63;;;0.20;99.90;;;;;;5089433;28;20024;-79
2021/01/16 03:10:10;;;;;;;15.45;9.63;;;0.10;99.90;;;;;;5070579;28;20028;-79
2021/01/16 03:12:36;;;;;;;16.38;10.07;;;0.10;99.90;;;;;;5077249;28;20025;-79
2021/01/16 03:15:06;;;;;;;14.18;9.35;;;0.00;99.90;;;;;;5077326;28;20032;-79
2021/01/16 03:17:45;;;;;;;17.10;10.48;;;0.00;99.90;;;;;;5075779;28;20027;-79
2021/01/16 03:20:13;;;;;;;15.77;9.57;;;0.00;99.90;;;;;;5077285;28;20033;-79
2021/01/16 03:22:41;;;;;;;16.75;9.90;;;-0.10;99.90;;;;;;5068826;28;20358;-79
2021/01/16 03:25:07;;;;;;;17.55;9.73;;;-0.20;99.90;;;;;;5086185;28;20032;-79
2021/01/16 03:27:38;;;;;;;16.55;9.63;;;-0.20;99.90;;;;;;5081997;28;20047;-80
2021/01/16 03:30:04;;;;;;;16.08;9.82;;;-0.20;99.90;;;;;;5079301;28;20078;-79
2021/01/16 03:32:32;;;;;;;16.52;10.07;;;-0.20;99.90;;;;;;5065471;28;20037;-80
2021/01/16 03:34:58;;;;;;;17.30;9.88;;;-0.20;99.90;;;;;;5080494;28;20036;-79
2021/01/16 03:37:23;;;;;;;15.77;9.77;;;-0.30;99.90;;;;;;5076578;28;20373;-79
2021/01/16 03:39:51;;;;;;;15.45;9.10;;;-0.30;99.90;;;;;;5078032;28;20063;-79
2021/01/16 03:42:19;;;;;;;15.00;9.02;;;-0.30;99.90;;;;;;5076831;28;20041;-79
2021/01/16 03:44:45;;;;;;;15.95;9.02;;;-0.30;99.90;;;;;;5076076;28;20618;-79
2021/01/16 03:47:13;;;;;;;14.50;8.77;;;-0.20;99.90;;;;;;5058368;28;20036;-79
2021/01/16 03:49:39;;;;;;;16.02;9.68;;;-0.30;99.90;;;;;;5074917;28;20017;-79
2021/01/16 03:52:08;;;;;;;15.95;9.65;;;-0.30;99.90;;;;;;5054837;28;20043;-79
2021/01/16 03:54:35;;;;;;;14.32;9.35;;;-0.30;99.90;;;;;;5066532;28;20509;-79
2021/01/16 03:57:03;;;;;;;15.70;9.45;;;-0.30;99.90;;;;;;5076934;28;20252;-80
2021/01/16 03:59:31;;;;;;;17.20;9.27;;;-0.30;99.90;;;;;;5075158;28;20599;-80
2021/01/16 04:01:59;;;;;;;15.95;9.63;;;-0.30;99.90;;;;;;5076965;28;20034;-79
2021/01/16 04:04:24;;;;;;;16.55;9.35;;;-0.30;99.90;;;;;;5071638;28;20025;-79
2021/01/16 04:06:50;;;;;;;16.27;9.68;;;-0.30;99.90;;;;;;5077933;28;20042;-79
2021/01/16 04:09:18;;;;;;;17.88;10.02;;;-0.30;99.90;;;;;;5077704;28;21840;-80
2021/01/16 04:11:46;;;;;;;15.57;9.50;;;-0.30;99.90;;;;;;5055913;28;20046;-80
2021/01/16 04:14:15;;;;;;;16.10;9.82;;;-0.30;99.90;;;;;;5076765;28;20039;-80
2021/01/16 04:16:43;;;;;;;14.88;9.27;;;-0.30;99.90;;;;;;5076018;28;20029;-80
2021/01/16 04:19:09;;;;;;;17.35;10.50;;;-0.30;99.90;;;;;;5077728;28;20470;-80
2021/01/16 04:21:37;;;;;;;16.52;9.90;;;-0.40;99.90;;;;;;5081550;28;20555;-80
2021/01/16 04:24:03;;;;;;;19.23;10.40;;;-0.40;99.90;;;;;;5074279;28;20059;-80
2021/01/16 04:26:31;;;;;;;16.70;9.80;;;-0.50;99.90;;;;;;5070628;28;20532;-79
2021/01/16 04:28:59;;;;;;;15.52;9.38;;;-0.50;99.90;;;;;;5076882;28;20054;-80
2021/01/16 04:31:25;;;;;;;16.23;9.20;;;-0.40;99.90;;;;;;5076640;28;20139;-79
2021/01/16 04:33:53;;;;;;;17.52;9.52;;;-0.50;99.90;;;;;;5076673;28;20038;-79
2021/01/16 04:36:21;;;;;;;16.10;9.18;;;-0.40;99.90;;;;;;5075034;28;20038;-79
2021/01/16 04:38:51;;;;;;;15.95;9.32;;;-0.40;99.90;;;;;;5074290;28;20032;-80
2021/01/16 04:41:19;;;;;;;13.48;8.60;;;-0.40;99.90;;;;;;5075987;28;20031;-80
2021/01/16 04:43:46;;;;;;;16.05;8.65;;;-0.40;99.90;;;;;;5059572;28;20163;-80
2021/01/16 04:46:11;;;;;;;15.27;9.13;;;-0.40;99.90;;;;;;5090152;28;20016;-80
2021/01/16 04:48:39;;;;;;;15.52;9.00;;;-0.50;99.90;;;;;;5069426;28;20040;-80
2021/01/16 04:51:05;;;;;;;14.07;8.85;;;-0.40;99.90;;;;;;5070116;28;20039;-79
2021/01/16 04:53:43;;;;;;;13.68;8.50;;;-0.40;99.90;;;;;;5077833;28;20064;-79
2021/01/16 04:56:11;;;;;;;13.80;8.70;;;-0.40;99.90;;;;;;5075164;28;20043;-79
2021/01/16 04:58:39;;;;;;;14.10;8.52;;;-0.40;99.90;;;;;;5066409;28;20050;-79
2021/01/16 05:01:06;;;;;;;13.75;8.35;;;-0.40;99.90;;;;;;5075249;28;20052;-79
2021/01/16 05:03:44;;;;;;;16.02;9.15;;;-0.40;99.90;;;;;;5075286;28;20035;-79
2021/01/16 05:06:11;;;;;;;13.23;8.35;;;-0.40;99.90;;;;;;5075872;28;20419;-79
2021/01/16 05:08:42;;;;;;;14.60;9.05;;;-0.30;99.90;;;;;;5061321;28;20043;-79
2021/01/16 05:11:17;;;;;;;14.20;8.60;;;-0.30;99.90;;;;;;5076043;28;20107;-79
2021/01/16 05:13:48;;;;;;;13.85;8.50;;;-0.30;99.90;;;;;;5074810;28;20515;-79
2021/01/16 05:16:19;;;;;;;13.60;8.65;;;-0.30;99.90;;;;;;5078831;28;20036;-79
2021/01/16 05:18:47;;;;;;;11.88;7.65;;;-0.30;99.90;;;;;;5084799;28;20465;-79
2021/01/16 05:21:15;;;;;;;13.40;8.15;;;-0.20;99.90;;;;;;5075937;28;20366;-79
2021/01/16 05:23:44;;;;;;;13.82;8.63;;;-0.20;99.90;;;;;;5074752;28;20056;-79
2021/01/16 05:26:10;;;;;;;15.25;9.35;;;-0.20;99.90;;;;;;5077935;28;20036;-79
2021/01/16 05:28:39;;;;;;;14.52;8.40;;;-0.20;99.90;;;;;;5075985;28;20832;-79
2021/01/16 05:31:07;;;;;;;13.48;7.95;;;-0.20;99.90;;;;;;5075857;28;20074;-79
2021/01/16 05:33:39;;;;;;;15.85;9.20;;;-0.20;99.90;;;;;;5074893;28;20024;-79
2021/01/16 05:36:07;;;;;;;13.15;7.63;;;-0.10;99.90;;;;;;5074609;28;20071;-79
2021/01/16 05:38:42;;;;;;;14.07;8.50;;;-0.10;99.90;;;;;;5069145;28;20035;-79
2021/01/16 05:41:14;;;;;;;14.73;8.40;;;-0.10;99.90;;;;;;5086061;28;20057;-80
2021/01/16 05:43:43;;;;;;;;;;;-0.10;99.90;;;;;;5066161;28;20032;-79
2021/01/16 05:46:14;;;;;;;10.18;6.32;;;-0.20;98.00;;;;;;5074361;28;20004;-80
2021/01/16 05:48:42;;;;;;;10.75;6.45;;;-0.20;99.90;;;;;;5074455;28;20040;-80
2021/01/16 05:51:08;;;;;;;10.25;6.38;;;-0.20;99.90;;;;;;5068469;28;20058;-80
2021/01/16 05:53:37;;;;;;;9.32;5.72;;;-0.20;99.70;;;;;;5074513;28;20135;-80
2021/01/16 05:56:02;;;;;;;10.23;6.50;;;-0.20;99.90;;;;;;5049119;28;20040;-80
2021/01/16 05:58:35;;;;;;;10.40;6.18;;;-0.20;99.90;;;;;;5074659;28;20393;-80
2021/01/16 06:01:07;;;;;;;10.63;6.07;;;-0.10;99.80;;;;;;5057026;28;20043;-80
2021/01/16 06:03:39;;;;;;;9.50;5.22;;;-0.10;98.40;;;;;;5071698;28;20026;-81
2021/01/16 06:06:14;;;;;;;6.75;4.25;;;-0.20;98.30;;;;;;5075060;28;20579;-80
2021/01/16 06:08:52;;;;;;;9.75;5.82;;;-0.20;98.00;;;;;;5061350;28;20033;-80
2021/01/16 06:11:18;;;;;;;10.38;6.72;;;-0.20;97.70;;;;;;5075114;28;20040;-80
2021/01/16 06:13:46;;;;;;;10.93;6.72;;;-0.20;98.70;;;;;;5073670;28;20028;-80
2021/01/16 06:16:18;;;;;;;9.88;5.72;;;-0.10;99.30;;;;;;5061078;28;20028;-80
2021/01/16 06:18:53;;;;;;;9.52;5.82;;;-0.10;99.70;;;;;;5074472;28;20077;-80
2021/01/16 06:21:29;;;;;;;11.15;5.80;;;-0.10;99.00;;;;;;5073113;28;20036;-80
2021/01/16 06:24:01;;;;;;;9.63;5.43;;;-0.20;97.90;;;;;;5072639;28;20089;-80
2021/01/16 06:26:32;;;;;;;9.55;5.80;;;-0.10;98.30;;;;;;5075420;28;20044;-79
2021/01/16 06:29:01;;;;;;;6.82;4.53;;;-0.10;97.60;;;;;;5074081;28;20047;-80
2021/01/16 06:31:33;;;;;;;9.25;5.40;;;-0.10;96.30;;;;;;5078093;28;20261;-79
2021/01/16 06:34:08;;;;;;;10.55;6.07;;;-0.20;96.90;;;;;;5073689;28;20050;-80
2021/01/16 06:36:36;;;;;;;8.65;5.47;;;-0.20;96.70;;;;;;5081834;28;20060;-79
2021/01/16 06:39:07;;;;;;;9.80;5.80;;;-0.20;95.60;;;;;;5080495;28;20098;-79
2021/01/16 06:41:34;;;;;;;10.68;6.70;;;-0.20;95.60;;;;;;5071703;28;20024;-79
2021/01/16 06:43:59;;;;;;;10.57;6.90;;;-0.20;96.40;;;;;;5077012;28;20044;-80
2021/01/16 06:46:46;;;;;;;10.32;6.60;;;-0.20;97.20;;;;;;5079368;28;20062;-79
2021/01/16 06:49:27;;;;;;;11.15;6.47;;;-0.20;96.20;;;;;;5077817;28;20058;-79
2021/01/16 06:51:57;;;;;;;10.35;6.63;;;-0.20;96.40;;;;;;5080989;28;20028;-79
2021/01/16 06:54:28;;;;;;;11.02;6.47;;;-0.30;96.00;;;;;;5077361;28;20027;-79
2021/01/16 06:57:20;;;;;;;10.32;6.40;;;-0.30;96.10;;;;;;5077947;28;20467;-80
2021/01/16 06:59:48;;;;;;;9.93;5.82;;;-0.20;96.20;;;;;;5073610;28;20151;-80
2021/01/16 07:02:16;;;;;;;9.60;5.63;;;-0.20;96.90;;;;;;5074875;28;20086;-79
2021/01/16 07:04:53;;;;;;;9.95;5.40;;;-0.20;96.40;;;;;;5078347;28;20032;-78
2021/01/16 07:07:30;;;;;;;8.65;5.03;;;-0.20;97.60;;;;;;5078105;28;20101;-79
2021/01/16 07:09:56;;;;;;;9.07;5.45;;;-0.10;97.40;;;;;;5078914;28;20347;-79
2021/01/16 07:12:26;;;;;;;9.00;5.22;;;-0.10;98.00;;;;;;5071579;28;20031;-79
2021/01/16 07:14:52;;;;;;;9.07;5.25;;;0.00;97.30;;;;;;5079401;28;20681;-79
2021/01/16 07:17:20;;;;;;;9.88;5.72;;;0.00;98.50;;;;;;5077758;28;20028;-80
2021/01/16 07:19:48;;;;;;;9.13;5.30;;;0.00;98.00;;;;;;5081744;28;20039;-78
2021/01/16 07:22:17;;;;;;;9.32;5.72;;;0.10;98.80;;;;;;5076935;28;20062;-79
2021/01/16 07:24:44;;;;;;;8.63;5.68;;;0.10;98.50;;;;;;5076130;28;20036;-79
2021/01/16 07:27:12;;;;;;;9.27;5.85;;;0.10;97.20;;;;;;5051358;28;20533;-79
2021/01/16 07:29:39;;;;;;;8.27;5.47;;;0.10;97.40;;;;;;5092627;28;20032;-79
2021/01/16 07:32:16;;;;;;;9.88;5.93;;;0.10;98.20;;;;;;5085077;28;20436;-79
2021/01/16 07:34:49;;;;;;;9.45;5.68;;;0.10;96.50;;;;;;5062215;28;20115;-79
2021/01/16 07:37:17;;;;;;;10.50;6.05;;;0.00;96.60;;;;;;5060204;28;20031;-78
2021/01/16 07:39:45;;;;;;;9.68;5.90;;;0.00;97.00;;;;;;5088336;28;20032;-80
2021/01/16 07:42:14;;;;;;;8.82;5.50;;;0.00;97.00;;;;;;5076188;28;20637;-79
2021/01/16 07:44:41;;;;;;;8.48;5.30;;;0.00;96.50;;;;;;5076149;28;20127;-78
2021/01/16 07:47:24;;;;;;;7.30;4.63;;;0.00;97.20;;;;;;5076293;28;20089;-79
2021/01/16 07:49:57;;;;;;;8.57;5.18;;;0.00;97.70;;;;;;5077422;28;20032;-79
2021/01/16 07:52:31;;;;;;;8.40;5.10;;;0.00;97.70;;;;;;5091783;28;20020;-78
2021/01/16 07:55:08;;;;;;;9.07;5.05;;;0.10;97.30;;;;;;5088102;28;20068;-79
2021/01/16 07:57:36;;;;;;;9.27;5.30;;;0.10;97.00;;;;;;5066275;28;20190;-79
2021/01/16 08:00:08;;;;;;;8.00;4.93;;;0.00;95.80;;;;;;5077026;28;20028;-79
2021/01/16 08:02:51;;;;;;;7.35;4.45;;;0.00;96.20;;;;;;5076093;28;20033;-79
2021/01/16 08:05:24;;;;;;;8.65;5.25;;;0.10;97.20;;;;;;5076280;28;20043;-79
2021/01/16 08:07:55;;;;;;;;;;;0.10;95.30;;;;;;5077304;28;20564;-79
2021/01/16 08:10:23;;;;;;;8.68;5.10;;;0.00;96.60;;;;;;5076793;28;19922;-78
2021/01/16 08:12:49;;;;;;;8.05;4.80;;;0.00;97.90;;;;;;5058625;28;20032;-79
2021/01/16 08:15:16;;;;;;;8.23;4.55;;;0.00;95.70;;;;;;5085353;28;20094;-80
2021/01/16 08:17:41;;;;;;;8.52;5.00;;;0.10;97.70;;;;;;5077383;28;20028;-79
2021/01/16 08:20:28;;;;;;;8.00;4.50;;;0.10;98.60;;;;;;5077059;28;20044;-79
2021/01/16 08:22:58;;;;;;;7.28;4.60;;;0.20;99.40;;;;;;5075538;28;20325;-79
2021/01/16 08:25:25;;;;;;;8.57;5.20;;;0.20;99.40;;;;;;5075284;28;20522;-79
2021/01/16 08:27:55;;;;;;;8.18;4.95;;;0.20;99.20;;;;;;5076999;28;20125;-79
2021/01/16 08:30:23;;;;;;;7.75;5.07;;;0.30;99.70;;;;;;5076571;28;20078;-79
2021/01/16 08:33:07;;;;;;;8.38;5.18;;;0.30;99.80;;;;;;5075058;28;20388;-79
2021/01/16 08:35:39;;;;;;;7.95;4.90;;;0.30;99.30;;;;;;5082637;28;20029;-79
2021/01/16 08:38:17;;;;;;;8.07;4.85;;;0.40;98.10;;;;;;5075548;28;20029;-79
2021/01/16 08:41:08;;;;;;;7.88;4.85;;;0.40;98.00;;;;;;5075541;28;20035;-79
2021/01/16 08:43:35;;;;;;;8.52;4.97;;;0.40;96.70;;;;;;5086310;28;20031;-79
2021/01/16 08:46:15;;;;;;;9.18;5.10;;;0.40;97.60;;;;;;5091420;28;20155;-79
2021/01/16 08:49:09;;;;;;;8.05;4.90;;;0.30;96.10;;;;;;5079440;28;20044;-79
2021/01/16 08:51:38;;;;;;;8.50;4.88;;;0.30;97.00;;;;;;5085821;28;20063;-79
2021/01/16 08:54:13;;;;;;;7.88;4.78;;;0.30;95.70;;;;;;5086197;28;20032;-78
2021/01/16 08:56:40;;;;;;;7.95;4.85;;;0.30;96.70;;;;;;5074995;28;20122;-79
2021/01/16 08:59:13;;;;;;;8.43;4.78;;;0.30;97.30;;;;;;5068963;28;20040;-80
2021/01/16 09:01:39;;;;;;;8.73;4.85;;;0.40;96.20;;;;;;5079264;28;20024;-79
2021/01/16 09:04:34;;;;;;;7.88;4.70;;;0.40;96.70;;;;;;5085005;28;20477;-78
2021/01/16 09:07:13;;;;;;;8.38;5.03;;;0.40;97.70;;;;;;5065343;28;20089;-75
2021/01/16 09:09:38;;;;;;;9.50;5.63;;;0.40;98.20;;;;;;5074654;28;20021;-74
2021/01/16 09:12:11;;;;;;;8.82;5.30;;;0.40;96.30;;;;;;5086813;28;20167;-80
2021/01/16 09:14:40;;;;;;;7.43;4.90;;;0.50;95.80;;;;;;5062757;28;20364;-79
2021/01/16 09:17:24;;;;;;;7.50;4.70;;;0.50;96.30;;;;;;5075198;28;20043;-79
2021/01/16 09:19:58;;;;;;;9.30;5.53;;;0.60;97.00;;;;;;5084760;28;20092;-79
2021/01/16 09:22:32;;;;;;;8.63;5.00;;;0.60;97.20;;;;;;5057450;28;20028;-80
2021/01/16 09:25:19;;;;;;;8.05;5.03;;;0.60;97.00;;;;;;5073488;28;20029;-79
2021/01/16 09:27:45;;;;;;;9.07;5.63;;;0.60;97.00;;;;;;5074846;28;20048;-80
2021/01/16 09:30:24;;;;;;;9.23;5.47;;;0.70;97.00;;;;;;5075303;28;20079;-80
2021/01/16 09:32:50;;;;;;;8.57;5.22;;;0.70;95.40;;;;;;5090262;28;20027;-79
2021/01/16 09:35:38;;;;;;;12.15;7.22;;;0.70;95.70;;;;;;5065608;28;20101;-73
2021/01/16 09:38:10;;;;;;;8.57;5.47;;;0.70;95.40;;;;;;5088986;28;20077;-73
2021/01/16 09:40:36;;;;;;;8.90;5.40;;;0.70;93.90;;;;;;5088470;28;20110;-79
2021/01/16 09:43:24;;;;;;;8.05;4.97;;;0.70;95.20;;;;;;5085332;28;20032;-79
2021/01/16 09:45:53;;;;;;;9.93;5.45;;;0.70;93.60;;;;;;5085990;28;20027;-79
2021/01/16 09:48:50;;;;;;;9.43;5.70;;;0.70;95.40;;;;;;5088465;28;20077;-80
2021/01/16 09:51:18;;;;;;;10.65;5.53;;;0.60;92.70;;;;;;5073964;28;20040;-80
2021/01/16 09:53:44;;;;;;;8.43;5.30;;;0.60;93.50;;;;;;5069374;28;20042;-79
2021/01/16 09:56:17;;;;;;;9.45;5.70;;;0.60;93.50;;;;;;5087954;28;20381;-79
2021/01/16 09:58:47;;;;;;;8.10;5.13;;;0.60;92.40;;;;;;5086233;28;20020;-78
2021/01/16 10:01:23;;;;;;;8.95;5.43;;;0.70;92.60;;;;;;5088434;28;20111;-78
2021/01/16 10:03:52;;;;;;;9.02;5.10;;;0.70;94.40;;;;;;5088151;28;20477;-79
2021/01/16 10:06:18;;;;;;;9.07;5.40;;;0.70;93.60;;;;;;5088571;28;20080;-79
2021/01/16 10:08:50;;;;;;;8.65;5.32;;;0.70;93.20;;;;;;5084276;28;20016;-79
2021/01/16 10:11:52;;;;;;;7.00;4.70;;;0.70;93.10;;;;;;5087729;28;20403;-80
2021/01/16 10:14:21;;;;;;;8.30;5.10;;;0.70;91.80;;;;;;5008005;28;20053;-79
2021/01/16 10:16:48;;;;;;;8.27;5.03;;;0.60;92.30;;;;;;5073422;28;20040;-79
2021/01/16 10:19:16;;;;;;;8.02;4.63;;;0.70;92.60;;;;;;5065277;28;20453;-80
2021/01/16 10:21:55;;;;;;;7.63;4.45;;;0.70;91.50;;;;;;5059042;28;20032;-79
2021/01/16 10:24:27;;;;;;;7.25;4.40;;;0.70;91.70;;;;;;5087099;28;20039;-79
2021/01/16 10:26:52;;;;;;;7.80;4.20;;;0.70;93.20;;;;;;5082106;28;20032;-79
2021/01/16 10:29:18;;;;;;;7.72;4.60;;;0.70;91.40;;;;;;5086347;28;20578;-80
2021/01/16 10:31:47;;;;;;;8.95;4.85;;;0.70;92.70;;;;;;5080927;28;20020;-80
2021/01/16 10:34:15;;;;;;;7.75;4.80;;;0.80;93.30;;;;;;5084879;28;20024;-79
2021/01/16 10:36:43;;;;;;;6.75;4.10;;;0.80;93.10;;;;;;5085707;28;20029;-79
2021/01/16 10:39:16;;;;;;;7.85;4.45;;;0.80;92.20;;;;;;5084355;28;20088;-73
2021/01/16 10:41:44;;;;;;;8.40;5.10;;;0.80;91.90;;;;;;5066237;28;20508;-73
2021/01/16 10:44:13;;;;;;;7.15;4.10;;;0.80;91.80;;;;;;5085515;28;20032;-79
2021/01/16 10:46:51;;;;;;;6.65;4.03;;;0.80;89.50;;;;;;5087871;28;20619;-79
2021/01/16 10:49:26;;;;;;;7.95;4.25;;;0.80;90.50;;;;;;5057804;28;20554;-79
2021/01/16 10:51:57;;;;;;;8.52;4.60;;;0.80;91.70;;;;;;5087271;28;20089;-79
2021/01/16 10:54:23;;;;;;;6.28;3.53;;;0.90;91.20;;;;;;5083239;28;20016;-79
2021/01/16 10:57:01;;;;;;;6.28;3.75;;;0.80;91.00;;;;;;5085179;28;20024;-79
2021/01/16 10:59:27;;;;;;;6.68;3.70;;;0.80;90.90;;;;;;5083915;28;20036;-80
2021/01/16 11:01:58;;;;;;;7.03;4.00;;;0.90;89.60;;;;;;5071412;28;20012;-80
2021/01/16 11:04:29;;;;;;;5.82;3.70;;;0.90;90.60;;;;;;5086419;28;20048;-80
2021/01/16 11:07:02;;;;;;;6.07;3.75;;;0.90;90.20;;;;;;5084310;28;20471;-79
2021/01/16 11:09:34;;;;;;;6.05;3.42;;;0.90;91.10;;;;;;5099796;28;20658;-80
2021/01/16 11:12:11;;;;;;;6.43;3.55;;;0.90;87.80;;;;;;5086968;28;20024;-80
2021/01/16 11:14:40;;;;;;;6.65;4.00;;;1.00;88.80;;;;;;5085562;28;20046;-80
2021/01/16 11:17:12;;;;;;;6.43;3.30;;;0.90;87.00;;;;;;5094758;28;20469;-80
2021/01/16 11:19:41;;;;;;;4.80;3.13;;;0.90;88.50;;;;;;5088824;28;20031;-80
2021/01/16 11:22:11;;;;;;;6.38;3.85;;;0.90;89.10;;;;;;5079464;28;20036;-80
2021/01/16 11:24:53;;;;;;;7.05;3.63;;;0.90;90.20;;;;;;5092280;28;20784;-79
2021/01/16 11:27:22;;;;;;;6.30;3.45;;;0.90;89.30;;;;;;5094938;28;20369;-80
2021/01/16 11:29:53;;;;;;;6.88;3.90;;;0.90;89.90;;;;;;5090496;28;20020;-80
2021/01/16 11:32:20;;;;;;;6.25;3.75;;;1.00;90.10;;;;;;5088406;28;20544;-80
2021/01/16 11:35:05;;;;;;;7.68;3.78;;;0.90;84.00;;;;;;5091573;28;20629;-80
2021/01/16 11:37:50;;;;;;;6.00;3.20;;;0.90;85.60;;;;;;5090804;28;20590;-80
2021/01/16 11:40:30;;;;;;;6.05;3.83;;;0.90;88.40;;;;;;5091475;28;20029;-80
2021/01/16 11:43:00;;;;;;;6.38;3.80;;;0.90;89.10;;;;;;5080894;28;20418;-79
2021/01/16 11:45:30;;;;;;;5.50;3.40;;;0.90;88.10;;;;;;5079070;28;20053;-77
2021/01/16 11:48:03;;;;;;;6.25;3.63;;;0.90;85.40;;;;;;5085955;28;20450;-75
2021/01/16 11:50:30;;;;;;;6.75;3.45;;;0.90;84.50;;;;;;5091728;28;20038;-80
2021/01/16 11:52:56;;;;;;;5.68;3.42;;;0.90;84.90;;;;;;5090647;28;20552;-80
2021/01/16 11:55:22;;;;;;;5.78;3.40;;;0.90;85.00;;;;;;5089020;28;20062;-80
2021/01/16 11:57:50;;;;;;;5.78;3.50;;;0.90;84.80;;;;;;5076729;28;20032;-80
2021/01/16 12:00:19;;;;;;;7.22;3.50;;;0.90;84.90;;;;;;5090349;28;20509;-80
2021/01/16 12:02:49;;;;;;;6.93;3.40;;;0.90;84.50;;;;;;5092837;28;20035;-81
2021/01/16 12:05:15;;;;;;;6.47;3.55;;;0.90;83.80;;;;;;5089578;28;20032;-80
2021/01/16 12:07:51;;;;;;;6.25;3.53;;;0.90;83.40;;;;;;5078080;28;20024;-80
2021/01/16 12:10:24;;;;;;;6.50;3.70;;;0.90;81.90;;;;;;5089093;28;20036;-80
2021/01/16 12:12:53;;;;;;;5.95;3.63;;;1.00;83.60;;;;;;5089595;28;20461;-80
2021/01/16 12:15:33;;;;;;;6.97;4.43;;;0.90;82.50;;;;;;5088688;28;20024;-80
2021/01/16 12:18:01;;;;;;;7.20;3.90;;;0.90;85.30;;;;;;5091227;28;20043;-80
2021/01/16 12:20:31;;;;;;;6.85;4.30;;;1.00;85.60;;;;;;5047831;28;20027;-79
2021/01/16 12:23:00;;;;;;;8.40;4.78;;;1.00;86.50;;;;;;5072760;28;20483;-80
2021/01/16 12:25:30;;;;;;;6.70;4.25;;;1.10;87.30;;;;;;5086424;28;20079;-80
2021/01/16 12:28:06;;;;;;;10.10;5.07;;;1.00;84.80;;;;;;5093835;28;20628;-79
2021/01/16 12:30:38;;;;;;;6.38;4.03;;;1.10;84.40;;;;;;5077573;28;20035;-80
2021/01/16 12:33:04;;;;;;;21.15;11.73;;;1.10;83.90;;;;;;5088644;28;20035;-80
2021/01/16 12:35:32;;;;;;;7.65;4.90;;;1.10;86.50;;;;;;5089878;28;20032;-80
2021/01/16 12:37:58;;;;;;;7.80;4.28;;;1.20;86.80;;;;;;5087909;28;20096;-80
2021/01/16 12:40:31;;;;;;;7.85;4.53;;;1.10;84.10;;;;;;5077087;28;20119;-79
2021/01/16 12:42:57;;;;;;;6.65;4.07;;;1.20;86.10;;;;;;5093436;28;20890;-80
2021/01/16 12:45:27;;;;;;;8.20;4.20;;;1.20;83.80;;;;;;5090072;28;20031;-80
2021/01/16 12:47:54;;;;;;;6.93;4.15;;;1.30;85.70;;;;;;5086786;28;20032;-80
2021/01/16 12:50:23;;;;;;;7.15;4.55;;;1.30;83.50;;;;;;5088037;28;20039;-79
2021/01/16 12:52:50;;;;;;;7.32;4.32;;;1.30;82.90;;;;;;5087262;28;20066;-80
2021/01/16 12:55:22;;;;;;;8.38;4.80;;;1.30;81.60;;;;;;5090360;28;20031;-80
2021/01/16 12:57:48;;;;;;;7.25;4.72;;;1.20;80.60;;;;;;5073605;28;20048;-80
2021/01/16 13:00:21;;;;;;;8.52;4.85;;;1.20;83.20;;;;;;5087423;28;20093;-80
2021/01/16 13:02:47;;;;;;;9.93;5.38;;;1.20;82.90;;;;;;5086573;28;20021;-80
2021/01/16 13:05:20;;;;;;;8.23;5.07;;;1.20;83.50;;;;;;5086298;28;20024;-80